sensor_id;sensor_type;location;lat;lon;timestamp;pressure;altitude;pressure_sealevel;temperature;humidity
41862;BME280;27537;57.134;-2.136;2022-08-01T00:00:06;101335.28;;;15.81;100.00
41862;BME280;27537;57.134;-2.136;2022-08-01T00:02:36;101340.47;;;15.83;100.00
41862;BME280;27537;57.134;-2.136;2022-08-01T00:05:05;101329.38;;;15.76;100.00
41862;BME280;27537;57.134;-2.136;2022-08-01T00:07:36;101333.56;;;15.80;100.00
41862;BME280;27537;57.134;-2.136;2022-08-01T00:10:04;101337.41;;;15.73;100.00
41862;BME280;27537;57.134;-2.136;2022-08-01T00:12:31;101333.94;;;15.72;100.00
41862;BME280;27537;57.134;-2.136;2022-08-01T00:14:58;101325.22;;;15.70;100.00
41862;BME280;27537;57.134;-2.136;2022-08-01T00:17:25;101331.72;;;15.82;100.00
41862;BME280;27537;57.134;-2.136;2022-08-01T00:19:52;101343.38;;;15.78;100.00
41862;BME280;27537;57.134;-2.136;2022-08-01T00:22:19;101332.19;;;15.54;100.00
41862;BME280;27537;57.134;-2.136;2022-08-01T00:24:45;101330.59;;;15.69;100.00
41862;BME280;27537;57.134;-2.136;2022-08-01T00:27:12;101313.06;;;15.49;100.00
41862;BME280;27537;57.134;-2.136;2022-08-01T00:29:39;101319.00;;;15.54;100.00
41862;BME280;27537;57.134;-2.136;2022-08-01T00:32:25;101321.34;;;15.60;100.00
41862;BME280;27537;57.134;-2.136;2022-08-01T00:34:52;101314.16;;;15.45;100.00
41862;BME280;27537;57.134;-2.136;2022-08-01T00:37:19;101317.50;;;15.48;100.00
41862;BME280;27537;57.134;-2.136;2022-08-01T00:39:46;101318.63;;;15.62;100.00
41862;BME280;27537;57.134;-2.136;2022-08-01T00:42:12;101305.88;;;15.52;100.00
41862;BME280;27537;57.134;-2.136;2022-08-01T00:44:40;101313.25;;;15.63;100.00
41862;BME280;27537;57.134;-2.136;2022-08-01T00:47:07;101313.56;;;15.57;100.00
41862;BME280;27537;57.134;-2.136;2022-08-01T00:49:34;101313.25;;;15.63;100.00
41862;BME280;27537;57.134;-2.136;2022-08-01T00:52:03;101308.28;;;15.57;100.00
41862;BME280;27537;57.134;-2.136;2022-08-01T00:54:31;101310.53;;;15.65;100.00
41862;BME280;27537;57.134;-2.136;2022-08-01T00:56:59;101298.91;;;15.51;100.00
41862;BME280;27537;57.134;-2.136;2022-08-01T00:59:26;101300.47;;;15.36;100.00
41862;BME280;27537;57.134;-2.136;2022-08-01T01:01:53;101300.06;;;15.46;100.00
41862;BME280;27537;57.134;-2.136;2022-08-01T01:04:21;101300.91;;;15.46;100.00
41862;BME280;27537;57.134;-2.136;2022-08-01T01:09:46;101298.25;;;15.46;100.00
41862;BME280;27537;57.134;-2.136;2022-08-01T01:15:22;101288.59;;;15.28;100.00
41862;BME280;27537;57.134;-2.136;2022-08-01T01:18:02;101293.44;;;15.37;100.00
41862;BME280;27537;57.134;-2.136;2022-08-01T01:20:45;101278.38;;;15.39;100.00
41862;BME280;27537;57.134;-2.136;2022-08-01T01:29:02;101287.25;;;15.55;100.00
41862;BME280;27537;57.134;-2.136;2022-08-01T01:34:17;101284.59;;;15.38;100.00
41862;BME280;27537;57.134;-2.136;2022-08-01T01:36:46;101267.56;;;15.26;100.00
41862;BME280;27537;57.134;-2.136;2022-08-01T01:39:15;101230.06;;;15.02;100.00
41862;BME280;27537;57.134;-2.136;2022-08-01T01:41:45;101250.84;;;15.08;100.00
41862;BME280;27537;57.134;-2.136;2022-08-01T01:44:14;101258.69;;;15.10;100.00
41862;BME280;27537;57.134;-2.136;2022-08-01T01:46:42;101260.63;;;15.06;100.00
41862;BME280;27537;57.134;-2.136;2022-08-01T01:49:10;101268.53;;;15.06;100.00
41862;BME280;27537;57.134;-2.136;2022-08-01T01:51:40;101253.94;;;14.99;100.00
41862;BME280;27537;57.134;-2.136;2022-08-01T01:54:31;101255.72;;;14.98;100.00
41862;BME280;27537;57.134;-2.136;2022-08-01T01:57:00;101258.94;;;15.05;100.00
41862;BME280;27537;57.134;-2.136;2022-08-01T01:59:30;101248.72;;;14.97;100.00
41862;BME280;27537;57.134;-2.136;2022-08-01T02:02:00;101248.09;;;14.92;100.00
41862;BME280;27537;57.134;-2.136;2022-08-01T02:04:33;101255.94;;;14.94;100.00
41862;BME280;27537;57.134;-2.136;2022-08-01T02:07:02;101251.94;;;15.04;100.00
41862;BME280;27537;57.134;-2.136;2022-08-01T02:09:30;101241.94;;;15.11;100.00
41862;BME280;27537;57.134;-2.136;2022-08-01T02:11:59;101241.94;;;15.11;100.00
41862;BME280;27537;57.134;-2.136;2022-08-01T02:14:34;101237.19;;;15.00;100.00
41862;BME280;27537;57.134;-2.136;2022-08-01T02:17:02;101235.72;;;14.94;100.00
41862;BME280;27537;57.134;-2.136;2022-08-01T02:19:30;101219.31;;;14.88;100.00
41862;BME280;27537;57.134;-2.136;2022-08-01T02:22:21;101251.19;;;15.19;100.00
41862;BME280;27537;57.134;-2.136;2022-08-01T02:25:00;101254.47;;;15.25;100.00
41862;BME280;27537;57.134;-2.136;2022-08-01T02:27:43;101238.41;;;15.29;100.00
41862;BME280;27537;57.134;-2.136;2022-08-01T02:30:13;101247.19;;;15.30;100.00
41862;BME280;27537;57.134;-2.136;2022-08-01T02:32:49;101246.56;;;15.25;100.00
41862;BME280;27537;57.134;-2.136;2022-08-01T02:35:25;101249.56;;;15.34;100.00
41862;BME280;27537;57.134;-2.136;2022-08-01T02:37:53;101239.78;;;15.36;100.00
41862;BME280;27537;57.134;-2.136;2022-08-01T02:40:22;101226.25;;;15.44;100.00
41862;BME280;27537;57.134;-2.136;2022-08-01T02:42:51;101235.56;;;15.51;100.00
41862;BME280;27537;57.134;-2.136;2022-08-01T02:45:20;101240.84;;;15.69;100.00
41862;BME280;27537;57.134;-2.136;2022-08-01T02:47:49;101226.00;;;15.49;100.00
41862;BME280;27537;57.134;-2.136;2022-08-01T02:50:17;101229.41;;;15.51;100.00
41862;BME280;27537;57.134;-2.136;2022-08-01T02:52:48;101234.16;;;15.44;100.00
41862;BME280;27537;57.134;-2.136;2022-08-01T02:55:18;101217.00;;;15.35;100.00
41862;BME280;27537;57.134;-2.136;2022-08-01T02:57:47;101233.63;;;15.55;100.00
41862;BME280;27537;57.134;-2.136;2022-08-01T03:00:18;101218.47;;;15.59;100.00
41862;BME280;27537;57.134;-2.136;2022-08-01T03:02:51;101225.00;;;15.69;100.00
41862;BME280;27537;57.134;-2.136;2022-08-01T03:05:22;101230.53;;;15.82;100.00
41862;BME280;27537;57.134;-2.136;2022-08-01T03:07:51;101224.63;;;15.77;100.00
41862;BME280;27537;57.134;-2.136;2022-08-01T03:10:20;101228.13;;;15.77;100.00
41862;BME280;27537;57.134;-2.136;2022-08-01T03:12:49;101218.50;;;15.76;100.00
41862;BME280;27537;57.134;-2.136;2022-08-01T03:15:17;101204.88;;;15.66;100.00
41862;BME280;27537;57.134;-2.136;2022-08-01T03:17:46;101222.38;;;15.69;100.00
41862;BME280;27537;57.134;-2.136;2022-08-01T03:20:15;101214.75;;;15.63;100.00
41862;BME280;27537;57.134;-2.136;2022-08-01T03:22:44;101218.34;;;15.62;100.00
41862;BME280;27537;57.134;-2.136;2022-08-01T03:25:14;101222.91;;;15.75;100.00
41862;BME280;27537;57.134;-2.136;2022-08-01T03:27:50;101220.50;;;15.88;100.00
41862;BME280;27537;57.134;-2.136;2022-08-01T03:30:18;101181.44;;;15.60;100.00
41862;BME280;27537;57.134;-2.136;2022-08-01T03:32:44;101208.63;;;15.80;100.00
41862;BME280;27537;57.134;-2.136;2022-08-01T03:35:12;101203.19;;;15.83;100.00
41862;BME280;27537;57.134;-2.136;2022-08-01T03:37:45;101195.03;;;15.87;100.00
41862;BME280;27537;57.134;-2.136;2022-08-01T03:40:45;101202.78;;;15.90;100.00
41862;BME280;27537;57.134;-2.136;2022-08-01T03:46:46;101194.09;;;15.88;100.00
41862;BME280;27537;57.134;-2.136;2022-08-01T03:49:26;101176.63;;;15.86;100.00
41862;BME280;27537;57.134;-2.136;2022-08-01T03:51:56;101179.88;;;15.91;100.00
41862;BME280;27537;57.134;-2.136;2022-08-01T03:54:25;101181.31;;;15.97;100.00
41862;BME280;27537;57.134;-2.136;2022-08-01T03:56:54;101174.44;;;15.94;100.00
41862;BME280;27537;57.134;-2.136;2022-08-01T03:59:21;101182.97;;;15.99;100.00
41862;BME280;27537;57.134;-2.136;2022-08-01T04:01:49;101182.00;;;16.00;100.00
41862;BME280;27537;57.134;-2.136;2022-08-01T04:04:16;101184.81;;;15.81;100.00
41862;BME280;27537;57.134;-2.136;2022-08-01T04:06:43;101157.59;;;15.79;100.00
41862;BME280;27537;57.134;-2.136;2022-08-01T04:09:11;101172.41;;;15.99;100.00
41862;BME280;27537;57.134;-2.136;2022-08-01T04:11:41;101185.03;;;16.10;100.00
41862;BME280;27537;57.134;-2.136;2022-08-01T04:14:08;101170.25;;;16.06;100.00
41862;BME280;27537;57.134;-2.136;2022-08-01T04:16:35;101177.88;;;16.12;100.00
41862;BME280;27537;57.134;-2.136;2022-08-01T04:19:02;101164.06;;;16.07;100.00
41862;BME280;27537;57.134;-2.136;2022-08-01T04:21:31;101149.81;;;16.09;100.00
41862;BME280;27537;57.134;-2.136;2022-08-01T04:24:03;101173.13;;;16.19;100.00
41862;BME280;27537;57.134;-2.136;2022-08-01T04:26:33;101126.13;;;15.92;100.00
41862;BME280;27537;57.134;-2.136;2022-08-01T04:29:02;101178.31;;;16.20;100.00
41862;BME280;27537;57.134;-2.136;2022-08-01T04:31:32;101171.91;;;16.08;100.00
41862;BME280;27537;57.134;-2.136;2022-08-01T04:34:02;101169.19;;;16.10;100.00
41862;BME280;27537;57.134;-2.136;2022-08-01T04:36:30;101165.19;;;16.19;100.00
41862;BME280;27537;57.134;-2.136;2022-08-01T04:39:00;101175.34;;;16.26;100.00
41862;BME280;27537;57.134;-2.136;2022-08-01T04:41:29;101162.22;;;16.25;100.00
41862;BME280;27537;57.134;-2.136;2022-08-01T04:43:57;101161.44;;;16.23;100.00
41862;BME280;27537;57.134;-2.136;2022-08-01T04:46:26;101162.47;;;16.20;100.00
41862;BME280;27537;57.134;-2.136;2022-08-01T04:48:54;101160.41;;;16.25;100.00
41862;BME280;27537;57.134;-2.136;2022-08-01T04:51:21;101162.28;;;16.23;100.00
41862;BME280;27537;57.134;-2.136;2022-08-01T04:53:49;101165.59;;;16.11;100.00
41862;BME280;27537;57.134;-2.136;2022-08-01T04:56:20;101143.47;;;16.13;100.00
41862;BME280;27537;57.134;-2.136;2022-08-01T04:58:47;101147.31;;;16.24;100.00
41862;BME280;27537;57.134;-2.136;2022-08-01T05:01:14;101140.31;;;16.23;100.00
41862;BME280;27537;57.134;-2.136;2022-08-01T05:03:42;101154.03;;;16.29;100.00
41862;BME280;27537;57.134;-2.136;2022-08-01T05:06:08;101153.19;;;16.29;100.00
41862;BME280;27537;57.134;-2.136;2022-08-01T05:08:35;101154.97;;;16.28;100.00
41862;BME280;27537;57.134;-2.136;2022-08-01T05:11:02;101141.84;;;16.27;100.00
41862;BME280;27537;57.134;-2.136;2022-08-01T05:13:29;101152.25;;;16.30;100.00
41862;BME280;27537;57.134;-2.136;2022-08-01T05:15:56;101143.38;;;16.15;100.00
41862;BME280;27537;57.134;-2.136;2022-08-01T05:18:25;101150.94;;;16.21;100.00
41862;BME280;27537;57.134;-2.136;2022-08-01T05:20:54;101145.94;;;16.17;100.00
41862;BME280;27537;57.134;-2.136;2022-08-01T05:23:21;101142.78;;;16.26;100.00
41862;BME280;27537;57.134;-2.136;2022-08-01T05:26:08;101144.00;;;16.36;100.00
41862;BME280;27537;57.134;-2.136;2022-08-01T05:28:35;101154.22;;;16.42;100.00
41862;BME280;27537;57.134;-2.136;2022-08-01T05:31:03;101131.16;;;16.12;100.00
41862;BME280;27537;57.134;-2.136;2022-08-01T05:33:30;101141.34;;;16.20;100.00
41862;BME280;27537;57.134;-2.136;2022-08-01T05:35:56;101092.91;;;16.04;100.00
41862;BME280;27537;57.134;-2.136;2022-08-01T05:38:23;101115.16;;;16.31;100.00
41862;BME280;27537;57.134;-2.136;2022-08-01T05:40:50;101131.78;;;16.49;100.00
41862;BME280;27537;57.134;-2.136;2022-08-01T05:43:17;101133.66;;;16.63;100.00
41862;BME280;27537;57.134;-2.136;2022-08-01T05:45:43;101127.59;;;16.61;100.00
41862;BME280;27537;57.134;-2.136;2022-08-01T05:48:12;101134.19;;;16.38;100.00
41862;BME280;27537;57.134;-2.136;2022-08-01T05:50:40;101128.63;;;16.43;100.00
41862;BME280;27537;57.134;-2.136;2022-08-01T05:53:06;101067.59;;;16.00;100.00
41862;BME280;27537;57.134;-2.136;2022-08-01T05:55:34;101099.75;;;16.40;100.00
41862;BME280;27537;57.134;-2.136;2022-08-01T05:58:02;101119.25;;;16.53;100.00
41862;BME280;27537;57.134;-2.136;2022-08-01T06:00:28;101124.84;;;16.79;100.00
41862;BME280;27537;57.134;-2.136;2022-08-01T06:02:55;101128.09;;;17.00;100.00
41862;BME280;27537;57.134;-2.136;2022-08-01T06:05:22;101127.00;;;16.72;100.00
41862;BME280;27537;57.134;-2.136;2022-08-01T06:07:49;101108.69;;;16.37;100.00
41862;BME280;27537;57.134;-2.136;2022-08-01T06:10:15;101111.00;;;16.43;100.00
41862;BME280;27537;57.134;-2.136;2022-08-01T06:12:42;101079.44;;;16.40;100.00
41862;BME280;27537;57.134;-2.136;2022-08-01T06:15:09;101104.63;;;17.53;100.00
41862;BME280;27537;57.134;-2.136;2022-08-01T06:17:36;101091.13;;;17.86;100.00
41862;BME280;27537;57.134;-2.136;2022-08-01T06:20:04;101097.41;;;18.27;100.00
41862;BME280;27537;57.134;-2.136;2022-08-01T06:22:36;101126.91;;;19.16;100.00
41862;BME280;27537;57.134;-2.136;2022-08-01T06:25:03;101081.25;;;19.11;100.00
41862;BME280;27537;57.134;-2.136;2022-08-01T06:27:34;101123.84;;;19.23;100.00
41862;BME280;27537;57.134;-2.136;2022-08-01T06:30:00;101073.09;;;19.40;100.00
41862;BME280;27537;57.134;-2.136;2022-08-01T06:32:27;101067.78;;;19.66;100.00
41862;BME280;27537;57.134;-2.136;2022-08-01T06:34:54;101113.13;;;20.01;100.00
41862;BME280;27537;57.134;-2.136;2022-08-01T06:37:22;101112.00;;;19.80;100.00
41862;BME280;27537;57.134;-2.136;2022-08-01T06:39:49;101095.84;;;20.20;100.00
41862;BME280;27537;57.134;-2.136;2022-08-01T06:42:16;101082.03;;;19.39;100.00
41862;BME280;27537;57.134;-2.136;2022-08-01T06:44:44;101092.34;;;19.57;100.00
41862;BME280;27537;57.134;-2.136;2022-08-01T06:47:11;101058.44;;;19.60;100.00
41862;BME280;27537;57.134;-2.136;2022-08-01T06:49:38;101061.00;;;19.75;100.00
41862;BME280;27537;57.134;-2.136;2022-08-01T06:52:05;101051.31;;;19.09;100.00
41862;BME280;27537;57.134;-2.136;2022-08-01T06:54:32;101070.84;;;19.60;100.00
41862;BME280;27537;57.134;-2.136;2022-08-01T06:56:59;101075.19;;;19.86;100.00
41862;BME280;27537;57.134;-2.136;2022-08-01T06:59:26;101093.88;;;20.35;100.00
41862;BME280;27537;57.134;-2.136;2022-08-01T07:01:53;101062.97;;;20.45;100.00
41862;BME280;27537;57.134;-2.136;2022-08-01T07:04:19;101077.53;;;20.76;100.00
41862;BME280;27537;57.134;-2.136;2022-08-01T07:06:46;101074.63;;;21.15;100.00
41862;BME280;27537;57.134;-2.136;2022-08-01T07:09:13;101072.31;;;20.75;100.00
41862;BME280;27537;57.134;-2.136;2022-08-01T07:11:40;101064.38;;;19.64;100.00
41862;BME280;27537;57.134;-2.136;2022-08-01T07:14:07;101081.31;;;20.37;100.00
41862;BME280;27537;57.134;-2.136;2022-08-01T07:16:34;101043.56;;;19.58;100.00
41862;BME280;27537;57.134;-2.136;2022-08-01T07:19:00;101045.53;;;20.17;100.00
41862;BME280;27537;57.134;-2.136;2022-08-01T07:21:27;101085.13;;;21.05;100.00
41862;BME280;27537;57.134;-2.136;2022-08-01T07:24:11;101057.84;;;21.93;100.00
41862;BME280;27537;57.134;-2.136;2022-08-01T07:26:45;101079.31;;;21.80;100.00
41862;BME280;27537;57.134;-2.136;2022-08-01T07:29:22;101063.44;;;21.90;100.00
41862;BME280;27537;57.134;-2.136;2022-08-01T07:31:51;101105.63;;;22.51;100.00
41862;BME280;27537;57.134;-2.136;2022-08-01T07:34:19;101072.78;;;22.40;96.94
41862;BME280;27537;57.134;-2.136;2022-08-01T07:36:46;101072.75;;;21.96;100.00
41862;BME280;27537;57.134;-2.136;2022-08-01T07:39:13;101079.81;;;21.74;100.00
41862;BME280;27537;57.134;-2.136;2022-08-01T07:41:40;101063.94;;;21.50;100.00
41862;BME280;27537;57.134;-2.136;2022-08-01T07:44:26;101060.59;;;20.53;100.00
41862;BME280;27537;57.134;-2.136;2022-08-01T07:46:54;101062.13;;;20.44;100.00
41862;BME280;27537;57.134;-2.136;2022-08-01T07:49:21;101033.75;;;20.80;100.00
41862;BME280;27537;57.134;-2.136;2022-08-01T07:51:48;101060.81;;;20.63;100.00
41862;BME280;27537;57.134;-2.136;2022-08-01T07:54:35;101086.63;;;20.74;100.00
41862;BME280;27537;57.134;-2.136;2022-08-01T07:57:03;101091.31;;;20.57;100.00
41862;BME280;27537;57.134;-2.136;2022-08-01T07:59:30;101045.38;;;20.07;100.00
41862;BME280;27537;57.134;-2.136;2022-08-01T08:01:57;101050.66;;;20.20;100.00
41862;BME280;27537;57.134;-2.136;2022-08-01T08:04:25;101074.69;;;20.42;100.00
41862;BME280;27537;57.134;-2.136;2022-08-01T08:06:52;101088.06;;;20.29;100.00
41862;BME280;27537;57.134;-2.136;2022-08-01T08:09:20;101037.28;;;20.57;100.00
41862;BME280;27537;57.134;-2.136;2022-08-01T08:11:46;101049.19;;;20.40;100.00
41862;BME280;27537;57.134;-2.136;2022-08-01T08:14:15;101036.56;;;20.55;100.00
41862;BME280;27537;57.134;-2.136;2022-08-01T08:16:43;101049.28;;;20.98;100.00
41862;BME280;27537;57.134;-2.136;2022-08-01T08:19:10;101063.19;;;21.48;100.00
41862;BME280;27537;57.134;-2.136;2022-08-01T08:21:37;101053.97;;;21.64;100.00
41862;BME280;27537;57.134;-2.136;2022-08-01T08:24:05;101018.28;;;21.66;100.00
41862;BME280;27537;57.134;-2.136;2022-08-01T08:26:59;101072.28;;;22.46;100.00
41862;BME280;27537;57.134;-2.136;2022-08-01T08:29:27;101058.72;;;22.70;97.12
41862;BME280;27537;57.134;-2.136;2022-08-01T08:31:57;101065.53;;;23.16;95.28
41862;BME280;27537;57.134;-2.136;2022-08-01T08:34:31;101054.69;;;22.54;89.18
41862;BME280;27537;57.134;-2.136;2022-08-01T08:37:00;101053.81;;;22.54;94.67
41862;BME280;27537;57.134;-2.136;2022-08-01T08:39:27;101026.13;;;23.08;96.43
41862;BME280;27537;57.134;-2.136;2022-08-01T08:41:59;101062.28;;;23.74;83.56
41862;BME280;27537;57.134;-2.136;2022-08-01T08:44:28;101057.06;;;22.90;81.43
41862;BME280;27537;57.134;-2.136;2022-08-01T08:46:57;100994.22;;;22.44;91.55
41862;BME280;27537;57.134;-2.136;2022-08-01T08:49:27;101025.91;;;23.21;83.38
41862;BME280;27537;57.134;-2.136;2022-08-01T08:52:03;101006.22;;;20.93;96.22
41862;BME280;27537;57.134;-2.136;2022-08-01T08:54:31;101032.69;;;20.83;100.00
41862;BME280;27537;57.134;-2.136;2022-08-01T08:57:00;101032.66;;;20.72;100.00
41862;BME280;27537;57.134;-2.136;2022-08-01T08:59:27;101033.63;;;21.29;100.00
41862;BME280;27537;57.134;-2.136;2022-08-01T09:01:55;101008.25;;;20.89;100.00
41862;BME280;27537;57.134;-2.136;2022-08-01T09:04:24;100997.69;;;21.23;100.00
41862;BME280;27537;57.134;-2.136;2022-08-01T09:06:53;101025.56;;;22.51;96.76
41862;BME280;27537;57.134;-2.136;2022-08-01T09:09:21;100989.00;;;22.63;90.08
41862;BME280;27537;57.134;-2.136;2022-08-01T09:11:48;101000.59;;;22.52;89.04
41862;BME280;27537;57.134;-2.136;2022-08-01T09:14:24;101015.22;;;21.71;95.32
41862;BME280;27537;57.134;-2.136;2022-08-01T09:17:05;101001.44;;;21.54;93.72
41862;BME280;27537;57.134;-2.136;2022-08-01T09:19:42;101016.44;;;21.33;94.00
41862;BME280;27537;57.134;-2.136;2022-08-01T09:22:12;100997.50;;;20.79;100.00
41862;BME280;27537;57.134;-2.136;2022-08-01T09:24:40;101016.78;;;20.10;100.00
41862;BME280;27537;57.134;-2.136;2022-08-01T09:27:20;101026.34;;;20.48;100.00
41862;BME280;27537;57.134;-2.136;2022-08-01T09:29:51;101027.34;;;20.47;100.00
41862;BME280;27537;57.134;-2.136;2022-08-01T09:32:30;101019.88;;;20.88;100.00
41862;BME280;27537;57.134;-2.136;2022-08-01T09:35:24;101021.41;;;21.60;100.00
41862;BME280;27537;57.134;-2.136;2022-08-01T09:38:17;100985.81;;;22.48;98.25
41862;BME280;27537;57.134;-2.136;2022-08-01T09:40:46;100979.19;;;23.06;94.33
41862;BME280;27537;57.134;-2.136;2022-08-01T09:43:15;100969.28;;;22.75;91.20
41862;BME280;27537;57.134;-2.136;2022-08-01T09:45:41;100981.75;;;22.96;92.85
41862;BME280;27537;57.134;-2.136;2022-08-01T09:48:11;101015.84;;;21.52;100.00
41862;BME280;27537;57.134;-2.136;2022-08-01T09:50:43;100998.28;;;22.15;100.00
41862;BME280;27537;57.134;-2.136;2022-08-01T09:53:11;101010.28;;;22.53;97.32
41862;BME280;27537;57.134;-2.136;2022-08-01T09:56:08;101009.59;;;21.96;93.73
41862;BME280;27537;57.134;-2.136;2022-08-01T09:58:58;100970.25;;;21.89;88.23
41862;BME280;27537;57.134;-2.136;2022-08-01T10:01:45;101005.06;;;21.31;95.36
41862;BME280;27537;57.134;-2.136;2022-08-01T10:04:19;100990.50;;;21.35;96.19
41862;BME280;27537;57.134;-2.136;2022-08-01T10:06:49;100981.09;;;21.65;88.64
41862;BME280;27537;57.134;-2.136;2022-08-01T10:09:35;100988.81;;;21.45;94.47
41862;BME280;27537;57.134;-2.136;2022-08-01T10:12:06;100994.28;;;21.32;99.37
41862;BME280;27537;57.134;-2.136;2022-08-01T10:14:34;100980.00;;;21.11;98.28
41862;BME280;27537;57.134;-2.136;2022-08-01T10:17:03;100963.53;;;21.05;99.03
41862;BME280;27537;57.134;-2.136;2022-08-01T10:19:31;101013.66;;;21.46;95.57
41862;BME280;27537;57.134;-2.136;2022-08-01T10:21:59;100962.06;;;21.58;91.53
41862;BME280;27537;57.134;-2.136;2022-08-01T10:24:28;100984.47;;;21.21;96.37
41862;BME280;27537;57.134;-2.136;2022-08-01T10:27:02;100926.75;;;21.11;95.81
41862;BME280;27537;57.134;-2.136;2022-08-01T10:29:58;100990.88;;;22.19;92.69
41862;BME280;27537;57.134;-2.136;2022-08-01T10:32:47;100958.06;;;22.07;89.51
41862;BME280;27537;57.134;-2.136;2022-08-01T10:35:19;100960.06;;;21.94;88.78
41862;BME280;27537;57.134;-2.136;2022-08-01T10:38:06;100975.19;;;21.50;93.67
41862;BME280;27537;57.134;-2.136;2022-08-01T10:40:40;100955.81;;;22.24;87.80
41862;BME280;27537;57.134;-2.136;2022-08-01T10:43:09;100966.06;;;21.64;86.65
41862;BME280;27537;57.134;-2.136;2022-08-01T10:45:37;100968.47;;;21.67;88.07
41862;BME280;27537;57.134;-2.136;2022-08-01T10:50:52;100895.66;;;20.89;93.29
41862;BME280;27537;57.134;-2.136;2022-08-01T10:58:32;100911.34;;;22.24;86.65
41862;BME280;27537;57.134;-2.136;2022-08-01T11:09:24;100927.19;;;22.05;73.01
41862;BME280;27537;57.134;-2.136;2022-08-01T11:12:11;100931.53;;;22.06;77.34
41862;BME280;27537;57.134;-2.136;2022-08-01T11:17:36;100906.94;;;21.70;75.84
41862;BME280;27537;57.134;-2.136;2022-08-01T11:28:27;100957.59;;;21.13;91.39
41862;BME280;27537;57.134;-2.136;2022-08-01T11:38:47;100929.41;;;20.99;91.86
41862;BME280;27537;57.134;-2.136;2022-08-01T11:41:24;100934.22;;;21.28;87.06
41862;BME280;27537;57.134;-2.136;2022-08-01T11:44:18;100923.13;;;21.23;85.43
41862;BME280;27537;57.134;-2.136;2022-08-01T11:47:03;100933.78;;;21.89;81.11
41862;BME280;27537;57.134;-2.136;2022-08-01T11:52:23;100936.78;;;21.52;79.11
41862;BME280;27537;57.134;-2.136;2022-08-01T11:54:55;100924.28;;;21.64;76.61
41862;BME280;27537;57.134;-2.136;2022-08-01T12:00:00;100911.56;;;21.45;76.08
41862;BME280;27537;57.134;-2.136;2022-08-01T12:02:31;100894.63;;;21.35;70.80
41862;BME280;27537;57.134;-2.136;2022-08-01T12:05:09;100913.63;;;20.62;70.08
41862;BME280;27537;57.134;-2.136;2022-08-01T12:07:41;100920.19;;;21.26;68.09
41862;BME280;27537;57.134;-2.136;2022-08-01T12:10:10;100916.81;;;20.79;66.18
41862;BME280;27537;57.134;-2.136;2022-08-01T12:12:43;100900.56;;;21.38;68.01
41862;BME280;27537;57.134;-2.136;2022-08-01T12:15:11;100897.56;;;20.64;68.24
41862;BME280;27537;57.134;-2.136;2022-08-01T12:20:12;100900.97;;;20.89;62.98
41862;BME280;27537;57.134;-2.136;2022-08-01T12:22:38;100891.03;;;21.36;61.74
41862;BME280;27537;57.134;-2.136;2022-08-01T12:27:33;100885.13;;;20.76;61.70
41862;BME280;27537;57.134;-2.136;2022-08-01T12:30:00;100882.66;;;21.29;63.70
41862;BME280;27537;57.134;-2.136;2022-08-01T12:35:02;100879.53;;;20.67;66.70
41862;BME280;27537;57.134;-2.136;2022-08-01T12:37:30;100872.75;;;21.31;65.22
41862;BME280;27537;57.134;-2.136;2022-08-01T12:39:56;100873.31;;;21.57;66.07
41862;BME280;27537;57.134;-2.136;2022-08-01T12:42:24;100866.97;;;21.15;65.70
41862;BME280;27537;57.134;-2.136;2022-08-01T12:44:51;100870.31;;;20.60;68.16
41862;BME280;27537;57.134;-2.136;2022-08-01T12:47:18;100863.44;;;20.58;67.65
41862;BME280;27537;57.134;-2.136;2022-08-01T12:49:46;100868.38;;;20.51;68.45
41862;BME280;27537;57.134;-2.136;2022-08-01T12:52:13;100864.53;;;21.23;68.56
41862;BME280;27537;57.134;-2.136;2022-08-01T12:54:59;100855.00;;;20.98;67.30
41862;BME280;27537;57.134;-2.136;2022-08-01T12:57:26;100858.03;;;20.71;65.74
41862;BME280;27537;57.134;-2.136;2022-08-01T12:59:52;100849.53;;;20.54;65.48
41862;BME280;27537;57.134;-2.136;2022-08-01T13:02:19;100848.94;;;20.73;64.34
41862;BME280;27537;57.134;-2.136;2022-08-01T13:04:49;100840.97;;;20.84;65.60
41862;BME280;27537;57.134;-2.136;2022-08-01T13:07:17;100848.47;;;20.91;62.45
41862;BME280;27537;57.134;-2.136;2022-08-01T13:09:50;100843.75;;;20.94;64.98
41862;BME280;27537;57.134;-2.136;2022-08-01T13:12:17;100828.59;;;20.61;62.57
41862;BME280;27537;57.134;-2.136;2022-08-01T13:14:43;100821.44;;;20.27;64.67
41862;BME280;27537;57.134;-2.136;2022-08-01T13:17:10;100833.53;;;20.43;66.43
41862;BME280;27537;57.134;-2.136;2022-08-01T13:19:41;100824.06;;;20.16;67.54
41862;BME280;27537;57.134;-2.136;2022-08-01T13:22:08;100822.56;;;20.93;66.32
41862;BME280;27537;57.134;-2.136;2022-08-01T13:24:35;100813.50;;;20.84;66.48
41862;BME280;27537;57.134;-2.136;2022-08-01T13:27:02;100810.94;;;20.37;67.50
41862;BME280;27537;57.134;-2.136;2022-08-01T13:29:37;100803.50;;;20.88;67.12
41862;BME280;27537;57.134;-2.136;2022-08-01T13:32:14;100802.63;;;20.98;67.45
41862;BME280;27537;57.134;-2.136;2022-08-01T13:35:08;100794.72;;;21.08;67.33
41862;BME280;27537;57.134;-2.136;2022-08-01T13:41:04;100790.78;;;20.91;68.77
41862;BME280;27537;57.134;-2.136;2022-08-01T13:43:31;100788.28;;;21.22;64.76
41862;BME280;27537;57.134;-2.136;2022-08-01T13:46:18;100779.78;;;21.28;64.09
41862;BME280;27537;57.134;-2.136;2022-08-01T13:48:45;100780.78;;;21.16;64.76
41862;BME280;27537;57.134;-2.136;2022-08-01T13:51:15;100778.53;;;21.00;66.04
41862;BME280;27537;57.134;-2.136;2022-08-01T13:53:47;100771.19;;;21.36;68.45
41862;BME280;27537;57.134;-2.136;2022-08-01T13:56:14;100772.72;;;21.50;66.92
41862;BME280;27537;57.134;-2.136;2022-08-01T13:58:42;100783.47;;;21.04;64.92